Time;durP1;ratioP1;P1;durP2;ratioP2;P2;SDS_P1;SDS_P2;PMS_P1;PMS_P2;Temp;Humidity;BMP_temperature;BMP_pressure;BME280_temperature;BME280_humidity;BME280_pressure;Samples;Min_cycle;Max_cycle;Signal;HPM_P1;HPM_P2
2022/08/28 00:01:05;;;;;;;3.88;1.50;;;14.10;99.90;;;;;;4969427;28;20022;-59
2022/08/28 00:03:31;;;;;;;4.10;2.25;;;14.00;99.90;;;;;;4977961;28;20125;-59
2022/08/28 00:05:58;;;;;;;5.13;2.10;;;14.10;99.90;;;;;;4977595;28;20022;-59
2022/08/28 00:08:24;;;;;;;4.38;1.85;;;14.20;99.90;;;;;;4973531;28;20042;-59
2022/08/28 00:10:50;;;;;;;4.47;1.50;;;14.30;99.90;;;;;;4982351;28;20030;-59
2022/08/28 00:13:19;;;;;;;1.67;1.23;;;14.30;99.90;;;;;;4974820;28;20034;-59
2022/08/28 00:15:48;;;;;;;4.22;1.95;;;14.10;99.90;;;;;;4979674;28;20097;-59
2022/08/28 00:18:15;;;;;;;7.28;1.90;;;14.20;99.90;;;;;;4987182;28;20493;-59
2022/08/28 00:20:41;;;;;;;4.43;1.67;;;14.10;99.90;;;;;;4970831;28;20029;-59
2022/08/28 00:23:07;;;;;;;2.88;1.30;;;14.10;99.90;;;;;;4976811;28;20046;-59
2022/08/28 00:25:34;;;;;;;3.72;1.40;;;14.00;99.90;;;;;;4974986;28;20121;-59
2022/08/28 00:28:04;;;;;;;4.43;1.30;;;14.00;99.90;;;;;;4971851;28;20027;-59
2022/08/28 00:30:31;;;;;;;2.25;1.20;;;13.90;99.90;;;;;;4984984;28;20050;-59
2022/08/28 00:33:00;;;;;;;2.40;1.30;;;13.90;99.90;;;;;;4979485;28;20548;-59
2022/08/28 00:35:26;;;;;;;4.82;1.63;;;13.90;99.90;;;;;;4980091;28;20041;-58
2022/08/28 00:37:56;;;;;;;5.00;1.42;;;13.90;99.90;;;;;;4980309;28;20062;-60
2022/08/28 00:40:26;;;;;;;2.05;1.30;;;13.90;99.90;;;;;;4970981;28;20085;-59
2022/08/28 00:42:53;;;;;;;2.75;1.70;;;13.80;99.90;;;;;;4974938;28;20066;-59
2022/08/28 00:45:20;;;;;;;3.80;1.58;;;13.90;99.90;;;;;;4978303;28;20394;-58
2022/08/28 00:47:46;;;;;;;4.15;1.50;;;13.80;99.90;;;;;;4977237;28;20041;-58
2022/08/28 00:50:18;;;;;;;3.13;1.75;;;13.90;99.90;;;;;;4983101;28;20030;-60
2022/08/28 00:52:50;;;;;;;6.05;1.90;;;14.00;99.90;;;;;;4972581;28;20368;-60
2022/08/28 00:55:21;;;;;;;4.63;1.65;;;14.00;99.90;;;;;;4974315;28;20035;-59
2022/08/28 00:57:51;;;;;;;5.72;1.85;;;14.00;99.90;;;;;;4974360;28;20026;-59
2022/08/28 01:00:22;;;;;;;4.82;1.92;;;14.00;99.90;;;;;;4972704;28;20041;-59
2022/08/28 01:02:48;;;;;;;6.65;1.88;;;13.90;99.90;;;;;;4975368;28;20506;-59
2022/08/28 01:05:16;;;;;;;6.05;2.08;;;13.90;99.90;;;;;;4971318;28;20061;-60
2022/08/28 01:07:42;;;;;;;4.47;1.77;;;13.80;99.90;;;;;;4975032;28;20034;-60
2022/08/28 01:10:11;;;;;;;8.55;1.80;;;13.80;99.90;;;;;;4978850;28;20030;-60
2022/08/28 01:12:37;;;;;;;2.85;1.60;;;13.80;99.90;;;;;;4982825;28;20032;-60
2022/08/28 01:15:10;;;;;;;5.07;2.42;;;13.80;99.90;;;;;;4973102;28;20019;-59
2022/08/28 01:17:39;;;;;;;3.75;2.00;;;13.80;99.90;;;;;;4981410;28;20037;-58
2022/08/28 01:20:10;;;;;;;3.45;2.20;;;13.80;99.90;;;;;;4979301;28;20031;-59
2022/08/28 01:23:05;;;;;;;4.13;2.25;;;13.80;99.90;;;;;;4983586;28;20030;-59
2022/08/28 01:25:33;;;;;;;4.47;2.10;;;13.80;99.90;;;;;;4970592;28;20376;-59
2022/08/28 01:28:01;;;;;;;6.80;2.38;;;13.70;99.90;;;;;;4974274;28;20037;-59
2022/08/28 01:30:28;;;;;;;3.55;1.75;;;13.70;99.90;;;;;;4971090;28;20204;-59
2022/08/28 01:32:55;;;;;;;3.22;1.75;;;13.80;99.90;;;;;;4985346;28;20038;-58
2022/08/28 01:35:30;;;;;;;6.53;1.90;;;13.70;99.90;;;;;;4971411;28;20077;-59
2022/08/28 01:37:56;;;;;;;6.05;2.10;;;13.70;99.90;;;;;;4976322;28;20505;-59
2022/08/28 01:40:35;;;;;;;5.45;2.00;;;13.60;99.90;;;;;;4981903;28;20039;-59
2022/08/28 01:43:14;;;;;;;6.85;2.15;;;13.50;99.90;;;;;;4976771;28;20483;-59
2022/08/28 01:45:53;;;;;;;3.47;1.95;;;13.50;99.90;;;;;;4981056;28;20027;-59
2022/08/28 01:48:21;;;;;;;2.92;1.95;;;13.50;99.90;;;;;;4974648;28;20027;-58
2022/08/28 01:50:47;;;;;;;5.63;2.30;;;13.40;99.90;;;;;;4979089;28;20019;-60
2022/08/28 01:53:16;;;;;;;6.60;2.03;;;13.30;99.90;;;;;;4978922;28;20035;-60
2022/08/28 01:55:42;;;;;;;3.88;1.77;;;13.30;99.90;;;;;;4976324;28;20026;-59
2022/08/28 01:58:09;;;;;;;3.75;2.38;;;13.30;99.90;;;;;;4977593;28;20029;-60
2022/08/28 02:00:35;;;;;;;6.43;2.47;;;13.30;99.90;;;;;;4973603;28;20041;-60
2022/08/28 02:03:01;;;;;;;6.35;3.05;;;13.20;99.90;;;;;;4974715;28;20031;-60
2022/08/28 02:05:30;;;;;;;7.03;2.40;;;13.10;99.90;;;;;;4976940;28;20479;-60
2022/08/28 02:07:57;;;;;;;7.15;2.65;;;13.10;99.90;;;;;;4978524;28;20066;-60
2022/08/28 02:10:25;;;;;;;3.80;1.88;;;13.20;99.90;;;;;;4980605;28;20098;-59
2022/08/28 02:12:52;;;;;;;4.15;1.98;;;13.20;99.90;;;;;;4974236;28;20042;-60
2022/08/28 02:15:18;;;;;;;3.53;2.28;;;13.20;99.90;;;;;;4975840;28;20502;-59
2022/08/28 02:17:43;;;;;;;6.38;2.20;;;13.20;99.90;;;;;;4976734;28;20046;-60
2022/08/28 02:20:09;;;;;;;2.80;1.77;;;13.10;99.90;;;;;;4975429;28;20470;-59
2022/08/28 02:22:35;;;;;;;6.63;2.00;;;13.10;99.90;;;;;;4983043;28;20035;-59
2022/08/28 02:25:02;;;;;;;3.63;1.70;;;13.10;99.90;;;;;;4985093;28;20041;-59
2022/08/28 02:27:28;;;;;;;8.05;2.38;;;13.10;99.90;;;;;;4979362;28;20031;-60
2022/08/28 02:29:54;;;;;;;6.03;2.17;;;13.10;99.90;;;;;;4980000;28;20417;-59
2022/08/28 02:32:20;;;;;;;4.07;1.60;;;13.00;99.90;;;;;;4973895;28;20035;-60
2022/08/28 02:34:46;;;;;;;9.10;2.10;;;13.00;99.90;;;;;;4971200;28;20046;-59
2022/08/28 02:37:12;;;;;;;5.50;2.10;;;13.00;99.90;;;;;;4975861;28;20113;-59
2022/08/28 02:39:39;;;;;;;4.07;1.88;;;13.00;99.90;;;;;;4972433;28;20037;-59
2022/08/28 02:42:05;;;;;;;6.50;2.30;;;12.90;99.90;;;;;;4977474;28;20038;-60
2022/08/28 02:44:31;;;;;;;3.97;2.20;;;12.90;99.90;;;;;;4965056;28;20110;-59
2022/08/28 02:46:57;;;;;;;4.80;2.08;;;12.90;99.90;;;;;;4984485;28;20040;-59
2022/08/28 02:49:22;;;;;;;8.77;2.15;;;12.80;99.90;;;;;;4968702;28;20394;-60
2022/08/28 02:51:49;;;;;;;4.05;2.25;;;12.80;99.90;;;;;;4979514;28;20565;-59
2022/08/28 02:54:15;;;;;;;5.18;1.92;;;12.80;99.90;;;;;;4979295;28;20105;-58
2022/08/28 02:56:41;;;;;;;5.10;2.25;;;12.80;99.90;;;;;;4971648;28;20037;-59
2022/08/28 02:59:06;;;;;;;3.88;1.95;;;12.80;99.90;;;;;;4980592;28;20121;-59
2022/08/28 03:01:32;;;;;;;3.13;2.08;;;12.80;99.90;;;;;;4975255;28;20026;-59
2022/08/28 03:04:01;;;;;;;2.95;1.98;;;12.80;99.90;;;;;;4982314;28;20068;-58
2022/08/28 03:06:31;;;;;;;4.35;2.15;;;12.80;99.90;;;;;;4974324;28;20034;-58
2022/08/28 03:08:58;;;;;;;6.90;2.47;;;12.80;99.90;;;;;;4977086;28;20279;-58
2022/08/28 03:11:25;;;;;;;5.03;1.83;;;12.70;99.90;;;;;;4982013;28;20030;-59
2022/08/28 03:13:51;;;;;;;5.75;2.30;;;12.70;99.90;;;;;;4977124;28;20030;-59
2022/08/28 03:16:17;;;;;;;6.50;2.17;;;12.70;99.90;;;;;;4984325;28;20026;-59
2022/08/28 03:18:42;;;;;;;3.38;2.13;;;12.70;99.90;;;;;;4975800;28;20050;-58
2022/08/28 03:21:09;;;;;;;5.80;2.72;;;12.70;99.90;;;;;;4977557;28;20475;-58
2022/08/28 03:23:36;;;;;;;2.72;2.13;;;12.70;99.90;;;;;;4975226;28;20049;-59
2022/08/28 03:26:07;;;;;;;5.28;2.13;;;12.70;99.90;;;;;;4980954;28;20035;-58
2022/08/28 03:28:40;;;;;;;6.00;1.90;;;12.70;99.90;;;;;;4979545;28;20092;-58
2022/08/28 03:31:07;;;;;;;4.72;2.20;;;12.70;99.90;;;;;;4979337;28;20081;-59
2022/08/28 03:33:33;;;;;;;2.33;1.60;;;12.70;99.90;;;;;;4975272;28;20075;-59
2022/08/28 03:35:59;;;;;;;2.15;1.50;;;12.70;99.90;;;;;;4976712;28;20030;-59
2022/08/28 03:38:25;;;;;;;5.78;2.08;;;12.70;99.90;;;;;;4980450;28;20032;-59
2022/08/28 03:40:51;;;;;;;3.85;1.73;;;12.60;99.90;;;;;;4982093;28;20027;-58
2022/08/28 03:43:20;;;;;;;3.30;1.92;;;12.70;99.90;;;;;;4977848;28;20034;-58
2022/08/28 03:46:13;;;;;;;4.30;2.40;;;12.70;99.90;;;;;;4977252;28;20034;-59
2022/08/28 03:48:39;;;;;;;4.32;1.85;;;12.80;99.90;;;;;;4967176;28;20070;-58
2022/08/28 03:51:10;;;;;;;7.28;2.40;;;12.90;99.90;;;;;;4981936;28;20058;-58
2022/08/28 03:53:36;;;;;;;3.20;1.77;;;12.90;99.90;;;;;;4964176;28;20031;-58
2022/08/28 03:56:15;;;;;;;4.03;1.85;;;12.90;99.90;;;;;;4975956;28;20026;-59
2022/08/28 03:58:42;;;;;;;4.10;2.40;;;12.90;99.90;;;;;;4981305;28;20034;-59
2022/08/28 04:01:08;;;;;;;4.85;1.88;;;12.90;99.90;;;;;;4980115;28;20070;-58
2022/08/28 04:03:34;;;;;;;4.03;2.03;;;12.80;99.90;;;;;;4971248;28;20501;-58
2022/08/28 04:06:00;;;;;;;4.70;1.60;;;12.70;99.90;;;;;;4986475;28;20030;-58
2022/08/28 04:08:26;;;;;;;7.72;2.30;;;12.70;99.90;;;;;;4982254;28;20498;-58
2022/08/28 04:10:53;;;;;;;8.10;1.90;;;12.70;99.90;;;;;;4975854;28;20105;-58
2022/08/28 04:13:20;;;;;;;2.60;1.50;;;12.70;99.90;;;;;;4973188;28;20077;-58
2022/08/28 04:15:58;;;;;;;4.85;2.03;;;12.60;99.90;;;;;;4981306;28;20058;-58
2022/08/28 04:18:24;;;;;;;4.72;1.65;;;12.60;99.90;;;;;;4978385;28;20034;-58
2022/08/28 04:21:02;;;;;;;6.35;3.55;;;12.60;99.90;;;;;;4981542;28;20206;-58
2022/08/28 04:23:29;;;;;;;4.57;2.03;;;12.60;99.90;;;;;;4978878;28;20046;-58
2022/08/28 04:25:54;;;;;;;4.60;1.55;;;12.60;99.90;;;;;;4980263;28;20030;-59
2022/08/28 04:28:21;;;;;;;6.63;1.73;;;12.70;99.90;;;;;;4972114;28;20101;-59
2022/08/28 04:30:55;;;;;;;2.72;1.50;;;12.80;99.90;;;;;;4976594;28;20022;-59
2022/08/28 04:33:25;;;;;;;4.85;1.60;;;12.80;99.90;;;;;;4967952;28;20030;-57
2022/08/28 04:35:51;;;;;;;5.22;1.70;;;12.80;99.90;;;;;;4978485;28;20031;-60
2022/08/28 04:38:17;;;;;;;2.58;1.23;;;12.80;99.90;;;;;;4974723;28;20391;-60
2022/08/28 04:40:43;;;;;;;6.30;1.75;;;12.70;99.90;;;;;;4975483;28;20205;-59
2022/08/28 04:43:09;;;;;;;7.00;1.73;;;12.60;99.90;;;;;;4975653;28;20147;-59
2022/08/28 04:45:42;;;;;;;4.45;1.63;;;12.60;99.90;;;;;;4984493;28;20391;-58
2022/08/28 04:48:09;;;;;;;4.53;1.88;;;12.60;99.90;;;;;;4978111;28;20030;-58
2022/08/28 04:50:39;;;;;;;5.65;2.03;;;12.60;99.90;;;;;;4981358;28;20022;-58
2022/08/28 04:53:05;;;;;;;7.32;1.80;;;12.60;99.90;;;;;;4975830;28;20035;-58
2022/08/28 04:55:30;;;;;;;4.53;2.15;;;12.60;99.90;;;;;;4986713;28;20352;-59
2022/08/28 04:57:56;;;;;;;7.85;2.20;;;12.60;99.90;;;;;;4976773;28;20038;-58
2022/08/28 05:00:22;;;;;;;2.97;1.98;;;12.60;99.90;;;;;;4979711;28;20037;-59
2022/08/28 05:02:48;;;;;;;5.15;1.95;;;12.50;99.90;;;;;;4978023;28;20118;-58
2022/08/28 05:05:14;;;;;;;3.47;1.60;;;12.50;99.90;;;;;;4988701;28;20036;-58
2022/08/28 05:07:39;;;;;;;4.13;2.05;;;12.50;99.90;;;;;;4976638;28;20054;-59
2022/08/28 05:10:06;;;;;;;3.78;1.85;;;12.50;99.90;;;;;;4974778;28;20102;-59
2022/08/28 05:12:34;;;;;;;4.70;1.60;;;12.50;99.90;;;;;;4968121;28;20038;-58
2022/08/28 05:15:00;;;;;;;3.58;2.05;;;12.40;99.90;;;;;;4974394;28;20046;-58
2022/08/28 05:17:26;;;;;;;4.97;2.00;;;12.50;99.90;;;;;;4980043;28;20072;-58
2022/08/28 05:19:53;;;;;;;6.22;1.75;;;12.50;99.90;;;;;;4977482;28;20429;-58
2022/08/28 05:22:18;;;;;;;4.10;1.80;;;12.60;99.90;;;;;;4973664;28;20081;-58
2022/08/28 05:24:44;;;;;;;4.65;2.00;;;12.60;99.90;;;;;;4973706;28;20031;-60
2022/08/28 05:27:09;;;;;;;5.15;1.90;;;12.60;99.90;;;;;;4976383;28;20023;-60
2022/08/28 05:29:35;;;;;;;4.70;2.00;;;12.60;99.90;;;;;;4969735;28;20043;-60
2022/08/28 05:32:01;;;;;;;2.95;1.60;;;12.60;99.90;;;;;;4973320;28;20030;-59
2022/08/28 05:34:27;;;;;;;5.75;1.63;;;12.70;99.90;;;;;;4973219;28;20082;-60
2022/08/28 05:36:52;;;;;;;5.60;2.05;;;12.60;99.90;;;;;;4974352;28;20135;-60
2022/08/28 05:39:18;;;;;;;5.47;1.67;;;12.60;99.90;;;;;;4975854;28;20045;-58
2022/08/28 05:41:45;;;;;;;5.82;1.88;;;12.70;99.90;;;;;;4974690;28;20117;-58
2022/08/28 05:44:13;;;;;;;4.75;1.90;;;12.80;99.90;;;;;;4971822;28;20030;-59
2022/08/28 05:46:41;;;;;;;4.63;2.03;;;12.80;99.90;;;;;;4973514;28;20062;-59
2022/08/28 05:49:07;;;;;;;8.80;1.75;;;12.80;99.90;;;;;;4981174;28;20569;-58
2022/08/28 05:51:34;;;;;;;5.47;1.70;;;12.80;99.90;;;;;;4982856;28;20037;-58
2022/08/28 05:54:01;;;;;;;4.43;1.80;;;12.80;99.90;;;;;;4978873;28;20058;-59
2022/08/28 05:56:29;;;;;;;5.10;1.73;;;12.90;99.90;;;;;;4977034;28;20030;-58
2022/08/28 05:58:56;;;;;;;4.72;1.40;;;13.00;99.90;;;;;;4981652;28;20031;-58
2022/08/28 06:01:27;;;;;;;4.88;1.98;;;13.00;99.90;;;;;;4972854;28;20031;-58
2022/08/28 06:04:18;;;;;;;4.95;2.15;;;13.00;99.90;;;;;;4984761;28;20038;-58
2022/08/28 06:06:44;;;;;;;5.88;2.08;;;13.00;99.90;;;;;;4974861;28;20026;-58
2022/08/28 06:09:15;;;;;;;2.50;2.05;;;13.10;99.90;;;;;;4973894;28;20082;-60
2022/08/28 06:11:43;;;;;;;6.57;2.10;;;13.10;99.90;;;;;;4969553;28;20027;-60
2022/08/28 06:14:11;;;;;;;4.22;2.15;;;13.10;99.90;;;;;;4971152;28;20027;-61
2022/08/28 06:16:38;;;;;;;4.85;2.08;;;13.20;99.90;;;;;;4956334;28;20474;-60
2022/08/28 06:19:04;;;;;;;8.95;2.00;;;13.30;99.90;;;;;;4973229;28;20045;-60
2022/08/28 06:21:32;;;;;;;6.72;2.63;;;13.30;99.90;;;;;;4966505;28;20053;-60
2022/08/28 06:23:58;;;;;;;4.38;2.10;;;13.40;99.90;;;;;;4968061;28;20683;-60
2022/08/28 06:26:23;;;;;;;3.45;1.60;;;13.40;99.90;;;;;;4966511;28;20058;-58
2022/08/28 06:28:50;;;;;;;3.75;2.70;;;13.50;99.90;;;;;;4967448;28;20059;-58
2022/08/28 06:31:15;;;;;;;6.88;2.38;;;13.60;99.90;;;;;;4971392;28;20738;-58
2022/08/28 06:33:41;;;;;;;4.25;2.38;;;13.60;99.90;;;;;;4971988;28;20106;-59
2022/08/28 06:36:07;;;;;;;3.63;2.10;;;13.70;99.90;;;;;;4970965;28;20027;-61
2022/08/28 06:38:33;;;;;;;3.80;2.28;;;13.70;99.90;;;;;;4968109;28;20379;-60
2022/08/28 06:40:58;;;;;;;3.30;2.70;;;13.80;99.90;;;;;;4969825;28;20117;-59
2022/08/28 06:43:27;;;;;;;6.25;2.05;;;13.80;99.90;;;;;;4966989;28;20109;-59
2022/08/28 06:45:55;;;;;;;4.47;1.70;;;14.00;99.90;;;;;;4971472;28;20463;-59
2022/08/28 06:48:24;;;;;;;6.10;2.35;;;14.00;99.90;;;;;;4968707;28;20039;-59
2022/08/28 06:50:52;;;;;;;3.17;1.80;;;14.10;99.90;;;;;;4966962;28;20030;-59
2022/08/28 06:53:20;;;;;;;5.13;1.90;;;14.20;99.90;;;;;;4969317;28;20404;-59
2022/08/28 06:56:00;;;;;;;3.53;1.48;;;14.30;99.90;;;;;;4968304;28;20431;-59
2022/08/28 06:58:26;;;;;;;7.22;1.90;;;14.40;99.90;;;;;;4962668;28;20065;-59
2022/08/28 07:01:00;;;;;;;5.85;1.80;;;14.40;99.90;;;;;;4969170;28;20498;-59
2022/08/28 07:03:28;;;;;;;7.47;2.15;;;14.50;99.90;;;;;;4965307;28;20517;-60
2022/08/28 07:05:58;;;;;;;4.40;2.17;;;14.60;99.90;;;;;;4968113;28;20159;-60
2022/08/28 07:08:26;;;;;;;8.57;2.05;;;14.70;99.90;;;;;;4969580;28;20030;-59
2022/08/28 07:10:52;;;;;;;6.80;1.80;;;14.80;99.90;;;;;;4980391;28;20033;-59
2022/08/28 07:13:19;;;;;;;3.45;1.75;;;14.90;99.90;;;;;;4972600;28;20122;-59
2022/08/28 07:15:45;;;;;;;7.13;1.80;;;15.00;99.90;;;;;;4968485;28;20398;-60
2022/08/28 07:18:11;;;;;;;4.65;1.38;;;15.00;99.90;;;;;;4968671;28;20027;-59
2022/08/28 07:20:36;;;;;;;5.90;2.33;;;15.10;99.90;;;;;;4967697;28;20442;-59
2022/08/28 07:23:03;;;;;;;5.38;1.95;;;15.20;99.90;;;;;;4969159;28;20095;-59
2022/08/28 07:25:28;;;;;;;3.55;1.13;;;15.30;99.90;;;;;;4967024;28;20059;-59
2022/08/28 07:27:54;;;;;;;3.63;1.90;;;15.30;99.90;;;;;;4968468;28;20478;-58
2022/08/28 07:30:20;;;;;;;4.45;1.40;;;15.40;99.90;;;;;;4975810;28;20027;-59
2022/08/28 07:32:49;;;;;;;5.43;1.63;;;15.40;99.90;;;;;;4967435;28;20098;-59
2022/08/28 07:35:17;;;;;;;6.65;1.50;;;15.50;99.90;;;;;;4967515;28;20562;-59
2022/08/28 07:37:44;;;;;;;4.55;1.70;;;15.60;99.90;;;;;;4969577;28;20030;-59
2022/08/28 07:40:10;;;;;;;3.28;1.30;;;15.60;99.90;;;;;;4969309;28;20478;-59
2022/08/28 07:45:21;;;;;;;5.45;1.40;;;15.70;99.90;;;;;;4968215;28;20505;-59
2022/08/28 07:47:46;;;;;;;3.95;1.42;;;15.80;99.90;;;;;;4967787;28;20022;-59
2022/08/28 07:50:14;;;;;;;6.70;2.55;;;15.90;99.90;;;;;;4968911;28;20379;-59
2022/08/28 07:52:39;;;;;;;6.03;1.92;;;15.90;99.90;;;;;;4966008;28;20492;-58
2022/08/28 07:55:07;;;;;;;5.40;1.33;;;16.00;99.90;;;;;;4969703;28;20529;-60
2022/08/28 07:57:33;;;;;;;4.30;1.98;;;16.00;99.90;;;;;;4966936;28;20062;-59
2022/08/28 07:59:59;;;;;;;4.70;1.42;;;16.10;99.90;;;;;;4968867;28;20027;-60
2022/08/28 08:02:25;;;;;;;4.32;1.70;;;16.20;99.90;;;;;;4965763;28;20038;-59
2022/08/28 08:04:51;;;;;;;5.28;1.13;;;16.30;99.90;;;;;;4967389;28;20027;-60
2022/08/28 08:07:16;;;;;;;3.42;1.15;;;16.40;99.90;;;;;;4968278;28;20045;-58
2022/08/28 08:09:43;;;;;;;5.60;1.10;;;16.40;99.90;;;;;;4967962;28;20033;-58
2022/08/28 08:12:10;;;;;;;3.65;1.30;;;16.50;99.90;;;;;;4967062;28;20031;-59
2022/08/28 08:14:37;;;;;;;3.97;1.25;;;16.60;99.90;;;;;;4965000;28;20030;-60
2022/08/28 08:17:04;;;;;;;5.35;1.10;;;16.70;99.90;;;;;;4972096;28;20402;-59
2022/08/28 08:19:30;;;;;;;5.10;1.38;;;16.90;99.90;;;;;;4965699;28;20027;-59
2022/08/28 08:21:56;;;;;;;4.35;1.25;;;16.90;99.90;;;;;;4967239;28;20225;-59
2022/08/28 08:24:25;;;;;;;4.43;1.33;;;17.10;99.90;;;;;;4965775;28;20150;-59
2022/08/28 08:26:53;;;;;;;8.63;1.90;;;17.30;99.90;;;;;;4966573;28;20026;-59
2022/08/28 08:29:20;;;;;;;5.72;1.48;;;17.40;99.90;;;;;;4970444;28;20042;-59
2022/08/28 08:31:54;;;;;;;4.82;1.15;;;17.60;99.90;;;;;;4970070;28;20100;-59
2022/08/28 08:34:20;;;;;;;4.78;1.23;;;17.80;99.90;;;;;;4972524;28;20065;-59
2022/08/28 08:36:45;;;;;;;5.75;1.42;;;18.10;99.90;;;;;;4971070;28;20031;-59
2022/08/28 08:39:11;;;;;;;8.68;1.55;;;18.30;99.90;;;;;;4980638;28;20023;-59
2022/08/28 08:41:46;;;;;;;4.53;1.17;;;18.50;99.90;;;;;;4978162;28;20033;-59
2022/08/28 08:44:18;;;;;;;4.65;0.93;;;18.70;99.90;;;;;;4973307;28;20035;-60
2022/08/28 08:47:15;;;;;;;5.82;1.10;;;18.90;99.90;;;;;;4971779;28;20137;-60
2022/08/28 08:49:49;;;;;;;7.85;1.45;;;19.10;99.90;;;;;;4970390;28;20034;-59
2022/08/28 08:52:27;;;;;;;4.25;1.13;;;19.30;99.90;;;;;;4978230;28;20026;-60
2022/08/28 08:55:23;;;;;;;5.30;1.08;;;19.40;99.90;;;;;;4971653;28;20030;-60
2022/08/28 08:57:58;;;;;;;6.03;1.10;;;19.60;99.90;;;;;;4971945;28;20025;-60
2022/08/28 09:00:24;;;;;;;5.65;1.30;;;19.80;99.90;;;;;;4973962;28;20033;-59
2022/08/28 09:03:06;;;;;;;4.47;0.85;;;20.20;99.90;;;;;;4980242;28;20112;-59
2022/08/28 09:05:45;;;;;;;9.18;1.10;;;20.40;99.90;;;;;;4978372;28;20074;-59
2022/08/28 09:08:25;;;;;;;4.63;1.10;;;20.40;99.90;;;;;;4973836;28;20054;-59
2022/08/28 09:11:03;;;;;;;2.58;0.90;;;20.60;99.90;;;;;;4965797;28;20109;-59
2022/08/28 09:13:58;;;;;;;2.90;1.00;;;20.70;99.90;;;;;;4965888;28;20026;-59
2022/08/28 09:16:35;;;;;;;4.72;1.17;;;21.10;99.90;;;;;;4971664;28;20030;-59
2022/08/28 09:19:01;;;;;;;5.18;1.10;;;21.10;99.90;;;;;;4973544;28;20045;-59
2022/08/28 09:21:34;;;;;;;4.70;1.23;;;21.20;99.90;;;;;;4978316;28;20362;-59
2022/08/28 09:24:03;;;;;;;4.60;1.20;;;21.20;99.90;;;;;;4976399;28;20113;-60
2022/08/28 09:26:29;;;;;;;6.85;1.10;;;21.40;99.90;;;;;;4975475;28;20034;-60
2022/08/28 09:29:04;;;;;;;5.40;1.27;;;21.40;99.90;;;;;;4978136;28;20161;-60
2022/08/28 09:31:37;;;;;;;5.95;1.00;;;21.30;99.90;;;;;;4971970;28;20451;-60
2022/08/28 09:34:23;;;;;;;7.57;1.13;;;21.30;99.90;;;;;;4975933;28;20049;-60
2022/08/28 09:36:51;;;;;;;5.03;1.20;;;21.20;99.90;;;;;;4973214;28;20042;-59
2022/08/28 09:39:29;;;;;;;3.67;2.13;;;21.20;99.90;;;;;;4970418;28;20035;-59
2022/08/28 09:44:56;;;;;;;3.63;1.02;;;21.50;99.90;;;;;;4977464;28;20041;-59
2022/08/28 09:47:37;;;;;;;2.72;0.88;;;21.80;99.90;;;;;;4978444;28;20026;-60
2022/08/28 09:50:23;;;;;;;4.88;0.90;;;22.00;99.90;;;;;;4974791;28;20026;-60
2022/08/28 09:52:50;;;;;;;5.13;1.25;;;21.90;99.90;;;;;;4974402;28;20023;-59
2022/08/28 09:55:41;;;;;;;5.90;1.00;;;21.80;99.90;;;;;;4970570;28;20062;-59
2022/08/28 09:58:08;;;;;;;5.23;1.60;;;21.90;99.90;;;;;;4950121;28;20031;-58
2022/08/28 10:00:39;;;;;;;4.82;1.80;;;22.20;99.90;;;;;;4950907;28;20661;-59
2022/08/28 10:03:18;;;;;;;7.30;1.27;;;22.30;99.90;;;;;;4958015;28;20046;-58
2022/08/28 10:05:55;;;;;;;3.92;1.10;;;22.20;99.90;;;;;;4958388;28;20036;-61
2022/08/28 10:08:47;;;;;;;4.88;1.25;;;22.10;99.90;;;;;;4960014;28;20035;-60
2022/08/28 10:11:30;;;;;;;8.32;1.35;;;22.10;99.90;;;;;;4959241;28;20110;-59
2022/08/28 10:14:18;;;;;;;6.13;0.93;;;22.00;99.90;;;;;;4954217;28;20472;-60
2022/08/28 10:16:55;;;;;;;6.25;1.90;;;22.00;99.90;;;;;;4894125;29;20441;-59
2022/08/28 10:19:30;;;;;;;7.05;1.58;;;22.20;99.90;;;;;;4893355;29;20091;-59
2022/08/28 10:22:24;;;;;;;6.85;0.90;;;22.20;99.90;;;;;;4893377;29;20100;-59
2022/08/28 10:25:06;;;;;;;5.32;1.05;;;22.30;99.90;;;;;;4895270;29;20032;-59
2022/08/28 10:27:35;;;;;;;7.28;1.20;;;22.50;99.90;;;;;;4892839;29;20033;-59
2022/08/28 10:30:12;;;;;;;7.90;1.05;;;22.40;99.90;;;;;;4894226;29;20469;-59
2022/08/28 10:32:58;;;;;;;3.65;1.00;;;22.40;99.90;;;;;;4884455;29;20453;-59
2022/08/28 10:35:56;;;;;;;3.58;0.60;;;22.10;99.90;;;;;;4905050;29;20067;-59
2022/08/28 10:38:35;;;;;;;6.85;1.08;;;22.30;99.90;;;;;;4897082;29;20064;-59
2022/08/28 10:41:24;;;;;;;4.70;1.00;;;22.90;99.90;;;;;;4913371;29;20242;-59
2022/08/28 10:43:53;;;;;;;4.85;1.48;;;23.30;99.90;;;;;;4911760;29;20166;-58
2022/08/28 10:46:23;;;;;;;7.78;1.60;;;23.30;99.90;;;;;;4913680;29;20058;-59
2022/08/28 10:49:15;;;;;;;7.13;1.55;;;23.10;99.90;;;;;;4913221;29;20119;-59
2022/08/28 10:51:45;;;;;;;6.15;1.38;;;22.80;99.90;;;;;;4907504;29;20039;-59
2022/08/28 10:54:37;;;;;;;4.90;1.08;;;22.10;99.90;;;;;;4953902;28;20035;-59
2022/08/28 10:57:09;;;;;;;;;;;21.70;99.90;;;;;;4966621;28;20034;-59
2022/08/28 10:59:36;;;;;;;5.88;1.23;;;21.40;99.90;;;;;;4971084;28;19910;-59
2022/08/28 11:02:05;;;;;;;3.53;1.13;;;21.30;99.90;;;;;;4972894;28;20027;-59
2022/08/28 11:04:31;;;;;;;4.65;0.80;;;21.20;99.90;;;;;;4970217;28;20035;-59
2022/08/28 11:07:05;;;;;;;5.93;0.95;;;21.50;99.90;;;;;;4972796;28;20430;-60
2022/08/28 11:09:38;;;;;;;3.88;0.80;;;22.20;99.90;;;;;;4970160;28;20035;-58
2022/08/28 11:12:08;;;;;;;2.38;1.00;;;22.70;99.90;;;;;;4972419;28;20027;-59
2022/08/28 11:14:39;;;;;;;1.90;0.90;;;22.90;99.90;;;;;;4970663;28;20041;-59
2022/08/28 11:17:26;;;;;;;4.43;1.30;;;23.00;99.90;;;;;;4972769;28;20034;-59
2022/08/28 11:20:14;;;;;;;4.45;1.30;;;23.00;99.90;;;;;;4967839;28;20055;-59
2022/08/28 11:23:05;;;;;;;2.75;1.00;;;22.70;99.90;;;;;;4970835;28;20039;-58
2022/08/28 11:25:42;;;;;;;5.77;1.10;;;22.50;99.90;;;;;;4960852;28;20039;-59
2022/08/28 11:28:23;;;;;;;6.25;1.17;;;22.30;99.90;;;;;;4970012;28;20656;-59
2022/08/28 11:31:09;;;;;;;6.03;1.70;;;22.40;99.90;;;;;;4972496;28;20031;-59
2022/08/28 11:33:43;;;;;;;8.23;1.33;;;22.60;99.90;;;;;;4970417;28;20491;-59
2022/08/28 11:36:21;;;;;;;5.57;1.13;;;22.90;99.90;;;;;;4970773;28;20027;-59
2022/08/28 11:38:56;;;;;;;4.20;1.38;;;23.30;99.90;;;;;;4970404;28;20053;-59
2022/08/28 11:41:27;;;;;;;4.80;1.02;;;23.60;99.90;;;;;;4969453;28;20153;-60
2022/08/28 11:44:25;;;;;;;4.10;0.95;;;24.40;99.90;;;;;;4970225;28;20038;-59
2022/08/28 11:46:54;;;;;;;4.47;0.88;;;25.00;99.90;;;;;;4971261;28;20033;-60
2022/08/28 11:49:23;;;;;;;2.60;1.15;;;25.30;99.90;;;;;;4971935;28;20041;-60
2022/08/28 11:52:24;;;;;;;4.28;1.15;;;25.60;99.90;;;;;;4971941;28;20066;-60
2022/08/28 11:55:27;;;;;;;5.35;1.13;;;26.20;99.90;;;;;;4962722;28;20478;-60
2022/08/28 11:58:02;;;;;;;4.93;1.13;;;26.90;99.90;;;;;;4968638;28;20023;-60
2022/08/28 12:00:49;;;;;;;6.85;1.48;;;27.10;99.90;;;;;;4970148;28;20513;-60
2022/08/28 12:03:35;;;;;;;8.38;1.50;;;27.20;99.90;;;;;;4971716;28;20402;-60
2022/08/28 12:06:02;;;;;;;5.30;1.00;;;26.70;99.90;;;;;;4960989;28;20375;-60
2022/08/28 12:08:46;;;;;;;4.95;1.40;;;26.30;99.90;;;;;;4969858;28;20031;-60
2022/08/28 12:11:40;;;;;;;10.02;1.58;;;25.80;99.90;;;;;;4970551;28;20054;-59
2022/08/28 12:14:30;;;;;;;3.00;0.95;;;25.50;99.90;;;;;;4971688;28;20031;-60
2022/08/28 12:17:21;;;;;;;5.93;1.73;;;25.50;99.90;;;;;;4971690;28;20239;-59
2022/08/28 12:19:52;;;;;;;4.05;0.88;;;25.40;99.90;;;;;;4967530;28;20038;-59
2022/08/28 12:22:21;;;;;;;5.10;1.30;;;25.40;99.90;;;;;;4970905;28;20047;-60
2022/08/28 12:25:03;;;;;;;1.67;1.02;;;24.90;99.90;;;;;;4970824;28;20130;-59
2022/08/28 12:27:30;;;;;;;3.92;1.33;;;25.00;99.90;;;;;;4968583;28;20035;-59
2022/08/28 12:30:00;;;;;;;4.35;1.45;;;24.70;99.90;;;;;;4971454;28;20027;-59
2022/08/28 12:32:32;;;;;;;2.33;1.25;;;24.20;99.90;;;;;;4969766;28;20023;-59
2022/08/28 12:35:06;;;;;;;4.93;0.77;;;24.40;99.90;;;;;;4970256;28;20640;-60
2022/08/28 12:37:41;;;;;;;4.15;1.13;;;25.10;99.90;;;;;;4968816;28;20035;-60
2022/08/28 12:40:21;;;;;;;2.45;1.13;;;25.70;99.90;;;;;;4970960;28;20113;-60
2022/08/28 12:42:57;;;;;;;5.13;1.25;;;27.10;99.90;;;;;;4957927;28;20085;-60
2022/08/28 12:45:49;;;;;;;2.65;1.10;;;27.80;99.50;;;;;;4969709;28;20023;-60
2022/08/28 12:48:21;;;;;;;9.35;1.60;;;27.60;98.80;;;;;;4968350;28;20121;-60
2022/08/28 12:50:47;;;;;;;;;;;27.70;98.30;;;;;;4971356;28;20035;-60
2022/08/28 12:53:17;;;;;;;2.45;1.17;;;28.20;96.70;;;;;;4971366;28;19917;-61
2022/08/28 12:55:44;;;;;;;5.97;1.65;;;29.20;94.80;;;;;;4969287;28;20073;-60
2022/08/28 12:58:27;;;;;;;3.75;1.10;;;29.70;92.60;;;;;;4965953;28;20037;-59
2022/08/28 13:00:58;;;;;;;5.95;1.13;;;30.10;86.90;;;;;;4969710;28;20031;-59
2022/08/28 13:03:24;;;;;;;4.53;1.33;;;30.00;81.60;;;;;;4964255;28;20065;-59
2022/08/28 13:06:08;;;;;;;3.95;1.17;;;30.50;81.40;;;;;;4970210;28;20031;-60
2022/08/28 13:08:35;;;;;;;4.45;1.15;;;31.00;78.80;;;;;;4969489;28;20027;-59
2022/08/28 13:11:01;;;;;;;6.35;1.00;;;30.50;75.50;;;;;;4970562;28;20541;-59
2022/08/28 13:13:45;;;;;;;4.72;0.93;;;28.90;81.40;;;;;;4968062;28;20038;-60